Time;durP1;ratioP1;P1;durP2;ratioP2;P2;SDS_P1;SDS_P2;PMS_P1;PMS_P2;Temp;Humidity;BMP_temperature;BMP_pressure;BME280_temperature;BME280_humidity;BME280_pressure;Samples;Min_cycle;Max_cycle;Signal;HPM_P1;HPM_P2
2023/01/29 00:01:27;;;;;;;60.50;30.73;;;77.20;2227.20;;;;;;5099672;28;20020;-87
2023/01/29 00:03:53;;;;;;;51.42;26.98;;;76.90;2227.20;;;;;;5100504;28;20059;-88
2023/01/29 00:06:19;;;;;;;47.95;25.38;;;77.00;2227.20;;;;;;5106653;28;20013;-87
2023/01/29 00:08:45;;;;;;;49.00;26.13;;;77.00;2227.20;;;;;;5119012;28;20024;-87
2023/01/29 00:11:12;;;;;;;42.03;23.20;;;77.10;2227.20;;;;;;5107665;28;20055;-87
2023/01/29 00:13:38;;;;;;;35.33;19.75;;;77.10;2227.20;;;;;;5098413;28;20031;-87
2023/01/29 00:16:04;;;;;;;31.08;18.13;;;77.10;2227.20;;;;;;5099424;28;20024;-87
2023/01/29 00:18:30;;;;;;;35.63;19.83;;;77.10;2227.20;;;;;;5099950;28;20028;-87
2023/01/29 00:20:56;;;;;;;34.65;18.80;;;77.10;2227.20;;;;;;5097622;28;20024;-88
2023/01/29 00:23:22;;;;;;;33.88;18.17;;;77.10;2227.20;;;;;;5097528;28;20118;-88
2023/01/29 00:25:48;;;;;;;35.50;18.60;;;77.00;2227.20;;;;;;5098319;28;20099;-86
2023/01/29 00:28:14;;;;;;;28.73;18.50;;;77.10;2227.20;;;;;;5097675;28;20095;-87
2023/01/29 00:30:40;;;;;;;29.73;17.88;;;77.00;2227.20;;;;;;5096494;28;20028;-88
2023/01/29 00:33:06;;;;;;;32.08;19.05;;;77.10;2227.20;;;;;;5096338;28;20351;-88
2023/01/29 00:35:33;;;;;;;27.27;16.40;;;77.10;2227.20;;;;;;5097583;28;20027;-87
2023/01/29 00:37:59;;;;;;;28.90;17.90;;;77.10;2227.20;;;;;;5096184;28;20051;-87
2023/01/29 00:40:25;;;;;;;27.90;17.00;;;77.10;2227.20;;;;;;5096225;28;20465;-88
2023/01/29 00:45:36;;;;;;;28.98;17.17;;;77.20;2227.20;;;;;;5097511;28;20035;-87
2023/01/29 00:48:02;;;;;;;31.15;17.42;;;77.10;2227.20;;;;;;5096432;28;20127;-88
2023/01/29 00:50:29;;;;;;;24.25;15.75;;;77.10;2227.20;;;;;;5096127;28;20049;-88
2023/01/29 00:52:54;;;;;;;28.35;17.30;;;52.00;2227.20;;;;;;5096469;28;20028;-87
2023/01/29 00:55:20;;;;;;;32.63;19.45;;;77.10;2227.20;;;;;;5097802;28;20020;-86
2023/01/29 00:57:47;;;;;;;30.67;17.27;;;77.50;2227.20;;;;;;5095665;28;20028;-87
2023/01/29 01:00:15;;;;;;;28.40;16.38;;;77.50;2227.20;;;;;;5095718;28;20027;-88
2023/01/29 01:05:26;;;;;;;27.88;16.65;;;77.10;2227.20;;;;;;5096815;28;20081;-86
2023/01/29 01:07:55;;;;;;;31.10;18.25;;;77.00;2227.20;;;;;;5095720;28;20431;-86
2023/01/29 01:10:31;;;;;;;24.60;14.50;;;77.10;2227.20;;;;;;5095004;28;20173;-86
2023/01/29 01:13:00;;;;;;;26.25;16.20;;;77.10;2227.20;;;;;;5095381;28;20024;-87
2023/01/29 01:15:36;;;;;;;28.63;16.63;;;77.10;2227.20;;;;;;5096138;28;20031;-88
2023/01/29 01:18:02;;;;;;;24.35;14.77;;;77.10;2227.20;;;;;;5095478;28;20097;-88
2023/01/29 01:20:30;;;;;;;26.48;15.30;;;77.00;2227.20;;;;;;5095113;28;20024;-87
2023/01/29 01:22:56;;;;;;;23.73;15.80;;;77.00;2227.20;;;;;;5095410;28;20032;-87
2023/01/29 01:25:26;;;;;;;28.25;16.77;;;77.10;2227.20;;;;;;5096605;28;20042;-87
2023/01/29 01:27:53;;;;;;;24.73;14.80;;;77.10;2227.20;;;;;;5096906;28;20042;-87
2023/01/29 01:30:19;;;;;;;25.02;14.70;;;77.10;2227.20;;;;;;5095437;28;20027;-86
2023/01/29 01:32:45;;;;;;;25.42;14.50;;;77.00;2227.20;;;;;;5095007;28;20028;-88
2023/01/29 01:35:13;;;;;;;29.05;16.25;;;77.00;2227.20;;;;;;5095310;28;20424;-88
2023/01/29 01:37:39;;;;;;;31.70;18.67;;;77.00;2227.20;;;;;;5095124;28;20040;-87
2023/01/29 01:40:11;;;;;;;29.60;16.98;;;77.00;2227.20;;;;;;5094956;28;20362;-88
2023/01/29 01:42:39;;;;;;;29.92;17.83;;;77.00;2227.20;;;;;;5095443;28;20476;-88
2023/01/29 01:45:09;;;;;;;24.67;15.70;;;77.00;2227.20;;;;;;5095552;28;20039;-88
2023/01/29 01:47:42;;;;;;;24.15;14.55;;;77.00;2227.20;;;;;;5097026;28;20100;-88
2023/01/29 01:50:53;;;;;;;29.17;17.27;;;77.00;2227.20;;;;;;5096760;28;20051;-87
2023/01/29 01:53:25;;;;;;;31.90;16.90;;;77.00;2227.20;;;;;;5094627;28;20028;-88
2023/01/29 01:55:59;;;;;;;22.60;15.57;;;77.00;2227.20;;;;;;5095063;28;20111;-88
2023/01/29 01:58:30;;;;;;;28.45;16.50;;;77.00;2227.20;;;;;;5094536;28;20039;-88
2023/01/29 02:00:57;;;;;;;24.23;14.93;;;77.10;2227.20;;;;;;5084625;28;20020;-88
2023/01/29 02:09:35;;;;;;;24.45;13.88;;;77.10;2227.20;;;;;;5074825;28;20090;-87
2023/01/29 02:12:13;;;;;;;25.45;13.63;;;77.00;2227.20;;;;;;5073618;28;20390;-88
2023/01/29 02:14:42;;;;;;;24.85;13.90;;;77.10;2227.20;;;;;;5073570;28;20102;-87
2023/01/29 02:17:12;;;;;;;27.00;14.20;;;77.10;2227.20;;;;;;5073231;28;20066;-88
2023/01/29 02:20:04;;;;;;;19.60;12.27;;;77.20;2227.20;;;;;;5073263;28;20051;-88
2023/01/29 02:22:36;;;;;;;23.65;11.80;;;77.10;2227.20;;;;;;5073453;28;20029;-89
2023/01/29 02:25:11;;;;;;;21.27;12.45;;;77.10;2227.20;;;;;;5073722;28;20424;-88
2023/01/29 02:28:07;;;;;;;23.88;13.20;;;77.10;2227.20;;;;;;5073397;28;20123;-87
2023/01/29 02:30:39;;;;;;;20.42;12.50;;;77.10;2227.20;;;;;;5073770;28;20024;-88
2023/01/29 02:33:21;;;;;;;23.73;13.57;;;77.10;2227.20;;;;;;5075043;28;20029;-88
2023/01/29 02:36:15;;;;;;;21.38;12.60;;;77.10;2227.20;;;;;;5073780;28;20050;-88
2023/01/29 02:39:41;;;;;;;21.95;12.90;;;77.20;2227.20;;;;;;5073538;28;20036;-88
2023/01/29 02:42:38;;;;;;;25.70;13.70;;;77.10;2227.20;;;;;;4977396;28;20030;-87
2023/01/29 02:45:30;;;;;;;24.27;14.52;;;77.00;2227.20;;;;;;5074035;28;20024;-89
2023/01/29 02:48:00;;;;;;;27.83;14.95;;;77.10;2227.20;;;;;;5074543;28;20466;-88
2023/01/29 02:50:57;;;;;;;28.45;15.05;;;77.10;2227.20;;;;;;5073804;28;20535;-89
2023/01/29 02:53:44;;;;;;;24.90;13.73;;;77.00;2227.20;;;;;;5073537;28;20029;-88
2023/01/29 02:56:39;;;;;;;31.85;16.08;;;77.10;2227.20;;;;;;5073265;28;20048;-88
2023/01/29 02:59:13;;;;;;;26.67;14.05;;;77.00;2227.20;;;;;;5074432;28;20039;-88
2023/01/29 03:01:54;;;;;;;26.92;14.18;;;77.00;2227.20;;;;;;5074398;28;20074;-88
2023/01/29 03:04:28;;;;;;;29.67;15.50;;;76.90;2227.20;;;;;;5073455;28;20029;-88
2023/01/29 03:07:02;;;;;;;30.20;15.77;;;77.00;2227.20;;;;;;5073876;28;20082;-88
2023/01/29 03:09:36;;;;;;;27.70;14.82;;;77.00;2227.20;;;;;;5073787;28;20385;-88
2023/01/29 03:12:27;;;;;;;29.08;16.73;;;77.00;2227.20;;;;;;5090636;28;20064;-87
2023/01/29 03:15:11;;;;;;;25.23;14.88;;;77.00;2227.20;;;;;;5090446;28;20025;-88
2023/01/29 03:17:45;;;;;;;32.75;15.13;;;77.00;2227.20;;;;;;5093488;28;20032;-84
2023/01/29 03:20:17;;;;;;;23.83;15.57;;;77.00;2227.20;;;;;;5097458;28;20088;-82
2023/01/29 03:22:50;;;;;;;28.75;14.68;;;77.00;2227.20;;;;;;5092499;28;20024;-88
2023/01/29 03:33:47;;;;;;;31.90;18.25;;;76.90;2227.20;;;;;;5078856;28;20059;-88
2023/01/29 03:36:36;;;;;;;31.65;16.23;;;77.00;2227.20;;;;;;5076563;28;20063;-87
2023/01/29 03:39:05;;;;;;;30.73;15.55;;;76.90;2227.20;;;;;;5077449;28;20040;-88
2023/01/29 03:41:40;;;;;;;25.80;15.38;;;77.00;2227.20;;;;;;5076584;28;20028;-88
2023/01/29 03:44:11;;;;;;;29.58;16.23;;;77.00;2227.20;;;;;;5076659;28;20059;-88
2023/01/29 03:46:51;;;;;;;25.45;15.55;;;77.00;2227.20;;;;;;5077030;28;20075;-88
2023/01/29 03:49:29;;;;;;;26.60;14.32;;;77.00;2227.20;;;;;;5077271;28;20040;-87
2023/01/29 03:52:11;;;;;;;20.40;12.80;;;77.00;2227.20;;;;;;5075693;28;20052;-88
2023/01/29 03:54:59;;;;;;;38.08;19.92;;;76.90;2227.20;;;;;;5075919;28;20028;-87
2023/01/29 03:57:39;;;;;;;39.53;18.27;;;76.90;2227.20;;;;;;5075593;28;20028;-87
2023/01/29 04:00:17;;;;;;;41.17;18.17;;;77.00;2227.20;;;;;;5076105;28;20035;-88
2023/01/29 04:02:48;;;;;;;40.30;19.60;;;77.00;2227.20;;;;;;5077198;28;20024;-87
2023/01/29 04:05:23;;;;;;;34.47;18.00;;;76.90;2227.20;;;;;;5075924;28;20112;-86
2023/01/29 04:07:55;;;;;;;35.97;18.45;;;76.90;2227.20;;;;;;5085804;28;20088;-86
2023/01/29 04:10:25;;;;;;;46.85;24.33;;;77.00;2227.20;;;;;;5100212;28;20059;-85
2023/01/29 04:12:58;;;;;;;39.63;21.65;;;77.00;2227.20;;;;;;5081653;28;20025;-88
2023/01/29 04:15:26;;;;;;;;;;;77.10;2227.20;;;;;;5077795;28;20028;-87
2023/01/29 04:17:54;;;;;;;28.90;16.80;;;77.10;2227.20;;;;;;5077095;28;19916;-87
2023/01/29 04:20:20;;;;;;;31.55;18.77;;;77.00;2227.20;;;;;;5075982;28;20056;-87
2023/01/29 04:22:48;;;;;;;32.40;18.70;;;77.00;2227.20;;;;;;5075820;28;20029;-87
2023/01/29 04:25:25;;;;;;;29.98;16.60;;;77.10;2227.20;;;;;;5076442;28;20044;-87
2023/01/29 04:28:00;;;;;;;29.30;16.77;;;77.10;2227.20;;;;;;5075695;28;20063;-87
2023/01/29 04:30:35;;;;;;;29.88;17.05;;;77.00;2227.20;;;;;;5075804;28;20074;-87
2023/01/29 04:33:03;;;;;;;28.52;18.42;;;77.00;2227.20;;;;;;5075526;28;20377;-88
2023/01/29 04:35:47;;;;;;;27.10;16.60;;;77.00;2227.20;;;;;;5074666;28;20450;-88
2023/01/29 04:38:28;;;;;;;30.80;15.38;;;77.00;2227.20;;;;;;5075412;28;20029;-88
2023/01/29 04:41:02;;;;;;;37.78;18.58;;;77.00;2227.20;;;;;;5075262;28;20024;-88
2023/01/29 04:43:58;;;;;;;33.42;18.55;;;77.00;2227.20;;;;;;5075896;28;20462;-88
2023/01/29 04:46:30;;;;;;;39.60;19.45;;;77.00;2227.20;;;;;;5074827;28;20036;-87
2023/01/29 04:49:39;;;;;;;37.47;18.52;;;77.00;2227.20;;;;;;5074970;28;20113;-88
2023/01/29 04:52:20;;;;;;;32.70;18.45;;;77.00;2227.20;;;;;;5075250;28;20037;-87
2023/01/29 04:55:00;;;;;;;29.05;15.85;;;77.00;2227.20;;;;;;5074961;28;20044;-88
2023/01/29 04:57:31;;;;;;;38.70;17.00;;;77.00;2227.20;;;;;;5075164;28;20032;-88
2023/01/29 05:00:08;;;;;;;33.92;18.65;;;77.00;2227.20;;;;;;5075126;28;20048;-88
2023/01/29 05:02:38;;;;;;;27.38;15.25;;;77.00;2227.20;;;;;;5072514;28;20117;-88
2023/01/29 05:05:05;;;;;;;30.20;15.77;;;77.00;2227.20;;;;;;5074945;28;20028;-89
2023/01/29 05:07:34;;;;;;;25.73;14.02;;;77.00;2227.20;;;;;;5075471;28;20062;-87
2023/01/29 05:10:01;;;;;;;28.67;15.77;;;77.00;2227.20;;;;;;5077821;28;20090;-87
2023/01/29 05:12:29;;;;;;;30.90;16.77;;;77.00;2227.20;;;;;;5075948;28;20108;-88
2023/01/29 05:14:59;;;;;;;24.50;15.10;;;77.10;2227.20;;;;;;5074450;28;20024;-87
2023/01/29 05:17:26;;;;;;;21.17;13.25;;;77.00;2227.20;;;;;;5076648;28;20032;-87
2023/01/29 05:19:54;;;;;;;23.55;13.07;;;77.00;2227.20;;;;;;5075684;28;20024;-88
2023/01/29 05:22:21;;;;;;;28.17;14.60;;;77.00;2227.20;;;;;;5074244;28;20056;-88
2023/01/29 05:24:48;;;;;;;30.25;15.80;;;77.00;2227.20;;;;;;5074532;28;20480;-88
2023/01/29 05:30:09;;;;;;;26.92;16.10;;;76.90;2227.20;;;;;;5075521;28;20074;-88
2023/01/29 05:32:35;;;;;;;23.88;13.25;;;76.90;2227.20;;;;;;5074532;28;20108;-89
2023/01/29 05:35:00;;;;;;;27.20;15.82;;;76.90;2227.20;;;;;;5074580;28;20449;-89
2023/01/29 05:37:26;;;;;;;28.15;15.77;;;76.90;2227.20;;;;;;5074220;28;20058;-88
2023/01/29 05:39:52;;;;;;;31.98;17.10;;;77.00;2227.20;;;;;;5075216;28;20485;-87
2023/01/29 05:42:17;;;;;;;27.73;15.75;;;77.00;2227.20;;;;;;5074183;28;20052;-88
2023/01/29 05:44:43;;;;;;;27.35;15.85;;;77.00;2227.20;;;;;;5074159;28;20029;-88
2023/01/29 05:47:09;;;;;;;23.50;15.15;;;77.00;2227.20;;;;;;5074094;28;20033;-87
2023/01/29 05:49:34;;;;;;;27.92;16.55;;;77.00;2227.20;;;;;;5073945;28;20024;-87
2023/01/29 05:52:00;;;;;;;28.55;15.38;;;77.00;2227.20;;;;;;5070922;28;20177;-86
2023/01/29 05:54:26;;;;;;;25.88;14.00;;;77.10;2227.20;;;;;;5053848;28;20381;-87
2023/01/29 05:56:51;;;;;;;29.90;16.55;;;77.00;2227.20;;;;;;5054407;28;20032;-88
2023/01/29 05:59:17;;;;;;;27.90;16.55;;;77.10;2227.20;;;;;;5054676;28;20032;-88
2023/01/29 06:01:43;;;;;;;24.90;14.40;;;77.10;2227.20;;;;;;5069537;28;20347;-87
2023/01/29 06:04:09;;;;;;;23.33;13.77;;;77.10;2227.20;;;;;;5073697;28;20115;-88
2023/01/29 06:06:34;;;;;;;24.52;15.35;;;77.00;2227.20;;;;;;5073923;28;20487;-88
2023/01/29 06:09:00;;;;;;;21.88;13.43;;;77.10;2227.20;;;;;;5073637;28;20032;-88
2023/01/29 06:11:26;;;;;;;26.00;15.07;;;77.10;2227.20;;;;;;5073496;28;20094;-88
2023/01/29 06:13:52;;;;;;;20.98;12.75;;;77.10;2227.20;;;;;;5073594;28;20085;-88
2023/01/29 06:16:17;;;;;;;32.58;18.80;;;77.10;2227.20;;;;;;5073520;28;20021;-88
2023/01/29 06:18:43;;;;;;;25.50;14.38;;;77.10;2227.20;;;;;;5073627;28;20029;-88
2023/01/29 06:21:12;;;;;;;32.65;17.92;;;77.10;2227.20;;;;;;5073467;28;20462;-88
2023/01/29 06:23:38;;;;;;;30.08;17.40;;;77.20;2227.20;;;;;;5073598;28;20496;-88
2023/01/29 06:26:07;;;;;;;28.52;16.40;;;77.20;2227.20;;;;;;5073479;28;20116;-89
2023/01/29 06:28:33;;;;;;;31.63;17.92;;;77.20;2227.20;;;;;;5073543;28;20115;-88
2023/01/29 06:31:01;;;;;;;27.35;17.60;;;77.20;2227.20;;;;;;5073595;28;20048;-88
2023/01/29 06:33:27;;;;;;;27.45;17.02;;;77.10;2227.20;;;;;;5073641;28;20359;-89
2023/01/29 06:36:00;;;;;;;33.67;19.33;;;77.20;2227.20;;;;;;5073462;28;20085;-88
2023/01/29 06:38:27;;;;;;;33.97;19.83;;;77.20;2227.20;;;;;;5073465;28;20028;-87
2023/01/29 06:40:53;;;;;;;38.13;21.23;;;77.20;2227.20;;;;;;5073277;28;20052;-87
2023/01/29 06:43:20;;;;;;;36.38;24.05;;;77.20;2227.20;;;;;;5073528;28;20029;-87
2023/01/29 06:45:56;;;;;;;35.75;21.98;;;77.20;2227.20;;;;;;5073638;28;20078;-87
2023/01/29 06:48:23;;;;;;;35.30;18.98;;;77.10;2227.20;;;;;;5073483;28;20036;-87
2023/01/29 06:50:50;;;;;;;29.05;18.70;;;77.00;2227.20;;;;;;5073436;28;20024;-88
2023/01/29 06:53:19;;;;;;;39.35;23.17;;;77.00;2227.20;;;;;;5073518;28;20020;-87
2023/01/29 06:55:51;;;;;;;34.95;20.17;;;77.00;2227.20;;;;;;5073278;28;20031;-87
2023/01/29 06:58:17;;;;;;;36.63;20.58;;;77.00;2227.20;;;;;;5074463;28;20029;-87
2023/01/29 07:00:43;;;;;;;31.50;19.27;;;77.00;2227.20;;;;;;5068862;28;20112;-88
2023/01/29 07:03:09;;;;;;;44.88;28.63;;;77.00;2227.20;;;;;;5057124;28;20056;-87
2023/01/29 07:05:36;;;;;;;47.33;33.45;;;77.00;2227.20;;;;;;5057027;28;20359;-87
2023/01/29 07:08:02;;;;;;;61.17;34.78;;;76.90;2227.20;;;;;;5057263;28;20102;-88
2023/01/29 07:10:27;;;;;;;47.55;27.83;;;76.90;2227.20;;;;;;5057167;28;20045;-86
2023/01/29 07:12:53;;;;;;;34.10;20.90;;;77.00;2227.20;;;;;;5057092;28;20025;-87
2023/01/29 07:15:20;;;;;;;78.47;45.60;;;76.90;2227.20;;;;;;5056748;28;20025;-89
2023/01/29 07:18:15;;;;;;;71.03;39.83;;;77.00;2227.20;;;;;;5056920;28;20056;-88
2023/01/29 07:20:42;;;;;;;72.38;35.78;;;77.00;2227.20;;;;;;5035487;28;20044;-88
2023/01/29 07:23:14;;;;;;;41.30;24.20;;;77.00;2227.20;;;;;;5057130;28;20056;-88
2023/01/29 07:25:40;;;;;;;62.55;33.42;;;77.00;2227.20;;;;;;5056892;28;20087;-88
2023/01/29 07:28:06;;;;;;;35.28;20.48;;;52.10;2227.20;;;;;;5066312;28;20068;-88
2023/01/29 07:30:32;;;;;;;27.92;15.48;;;77.00;2227.20;;;;;;5081856;28;20105;-87
2023/01/29 07:33:07;;;;;;;32.58;19.80;;;76.90;2227.20;;;;;;5091772;28;20096;-87
2023/01/29 07:35:40;;;;;;;43.97;27.27;;;77.00;2227.20;;;;;;5099770;28;20051;-81
2023/01/29 07:38:07;;;;;;;37.03;22.83;;;77.00;2227.20;;;;;;5100342;28;20080;-86
2023/01/29 07:40:33;;;;;;;31.23;19.02;;;77.00;2227.20;;;;;;5088357;28;20027;-88
2023/01/29 07:43:04;;;;;;;45.40;28.13;;;77.00;2227.20;;;;;;5080881;28;20036;-88
2023/01/29 07:45:32;;;;;;;39.45;23.45;;;77.00;2227.20;;;;;;5079767;28;20025;-86
2023/01/29 07:47:58;;;;;;;64.28;37.55;;;77.00;2227.20;;;;;;5077763;28;20446;-88
2023/01/29 07:50:25;;;;;;;38.85;25.02;;;77.00;2227.20;;;;;;5077664;28;20086;-87
2023/01/29 07:52:53;;;;;;;31.27;20.05;;;76.90;2227.20;;;;;;5076188;28;20029;-86
2023/01/29 07:55:19;;;;;;;46.67;27.58;;;77.00;2227.20;;;;;;5077103;28;20024;-84
2023/01/29 07:57:45;;;;;;;41.53;24.65;;;77.00;2227.20;;;;;;5077326;28;20074;-87
2023/01/29 08:00:13;;;;;;;36.75;23.00;;;77.00;2227.20;;;;;;5075476;28;20039;-86
2023/01/29 08:02:40;;;;;;;33.40;21.85;;;77.00;2227.20;;;;;;5075571;28;20351;-87
2023/01/29 08:05:06;;;;;;;38.38;25.60;;;77.00;2227.20;;;;;;5075617;28;20024;-86
2023/01/29 08:07:32;;;;;;;35.15;22.10;;;77.10;2227.20;;;;;;5075360;28;20045;-87
2023/01/29 08:09:58;;;;;;;46.78;26.67;;;76.90;2227.20;;;;;;5074356;28;20572;-88
2023/01/29 08:12:23;;;;;;;46.90;29.67;;;77.00;2227.20;;;;;;5075712;28;20454;-88
2023/01/29 08:14:49;;;;;;;49.28;32.10;;;77.00;2227.20;;;;;;5075879;28;20020;-86
2023/01/29 08:17:15;;;;;;;87.95;56.42;;;77.00;2227.20;;;;;;5075866;28;20028;-86
2023/01/29 08:19:40;;;;;;;103.07;62.10;;;77.10;2227.20;;;;;;5075735;28;20029;-88
2023/01/29 08:22:06;;;;;;;65.78;35.20;;;77.10;2227.20;;;;;;5076063;28;20030;-88
2023/01/29 08:24:32;;;;;;;44.78;25.17;;;77.10;2227.20;;;;;;5076269;28;20370;-87
2023/01/29 08:26:58;;;;;;;39.25;26.85;;;77.10;2227.20;;;;;;5077181;28;20029;-87
2023/01/29 08:29:23;;;;;;;46.50;30.48;;;77.20;2227.20;;;;;;5075820;28;20469;-88
2023/01/29 08:31:49;;;;;;;39.30;24.88;;;77.20;2227.20;;;;;;5075584;28;20047;-88
2023/01/29 08:34:15;;;;;;;73.85;47.40;;;77.20;2227.20;;;;;;5075395;28;20381;-87
2023/01/29 08:36:41;;;;;;;56.28;37.10;;;77.20;2227.20;;;;;;5076701;28;20095;-87
2023/01/29 08:39:07;;;;;;;67.47;40.88;;;77.20;2227.20;;;;;;5075369;28;20033;-89
2023/01/29 08:41:32;;;;;;;41.17;26.85;;;77.20;2227.20;;;;;;5075178;28;20031;-88
2023/01/29 08:44:00;;;;;;;43.83;28.92;;;77.20;2227.20;;;;;;5076353;28;20032;-88
2023/01/29 08:46:25;;;;;;;47.05;26.30;;;77.20;2227.20;;;;;;5076358;28;20031;-86
2023/01/29 08:48:51;;;;;;;39.78;24.13;;;77.20;2227.20;;;;;;5075035;28;20037;-87
2023/01/29 08:51:17;;;;;;;35.10;23.35;;;77.20;2227.20;;;;;;5075134;28;20112;-86
2023/01/29 08:53:43;;;;;;;34.45;23.88;;;77.20;2227.20;;;;;;5074366;28;20048;-87
2023/01/29 08:56:09;;;;;;;38.90;23.92;;;77.20;2227.20;;;;;;5074629;28;20025;-87
2023/01/29 08:58:34;;;;;;;41.75;25.23;;;77.20;2227.20;;;;;;5074494;28;20462;-86
2023/01/29 09:01:11;;;;;;;47.45;29.10;;;77.20;2227.20;;;;;;5074399;28;20039;-88
2023/01/29 09:03:42;;;;;;;63.38;34.33;;;77.20;2227.20;;;;;;5075185;28;20470;-89
2023/01/29 09:06:12;;;;;;;91.35;45.88;;;77.20;2227.20;;;;;;5074606;28;20028;-87
2023/01/29 09:08:38;;;;;;;74.82;41.05;;;77.20;2227.20;;;;;;5074699;28;20059;-87
2023/01/29 09:11:04;;;;;;;53.20;32.75;;;77.20;2227.20;;;;;;5074721;28;20052;-87
2023/01/29 09:13:30;;;;;;;47.40;31.23;;;77.20;2227.20;;;;;;5074515;28;20059;-87
2023/01/29 09:15:59;;;;;;;44.05;29.67;;;77.20;2227.20;;;;;;5074665;28;20142;-87
2023/01/29 09:18:25;;;;;;;45.90;29.70;;;77.00;2227.20;;;;;;5074816;28;20029;-86
2023/01/29 09:20:52;;;;;;;46.92;28.40;;;77.20;2227.20;;;;;;5074146;28;20032;-86
2023/01/29 09:23:19;;;;;;;43.35;28.33;;;77.20;2227.20;;;;;;5074752;28;20028;-87
2023/01/29 09:25:45;;;;;;;36.38;21.85;;;77.10;2227.20;;;;;;5074836;28;20028;-86
2023/01/29 09:28:11;;;;;;;33.13;20.65;;;77.20;2227.20;;;;;;5077076;28;20123;-88
2023/01/29 09:30:37;;;;;;;43.13;26.27;;;77.20;2227.20;;;;;;5065698;28;20098;-86
2023/01/29 09:33:04;;;;;;;60.97;37.72;;;77.20;2227.20;;;;;;5056323;28;20025;-87
2023/01/29 09:35:30;;;;;;;56.95;31.58;;;77.20;2227.20;;;;;;5054373;28;20474;-87
2023/01/29 09:37:56;;;;;;;71.03;44.03;;;77.30;2227.20;;;;;;5054148;28;20029;-88
2023/01/29 09:40:40;;;;;;;38.75;25.63;;;76.90;2227.20;;;;;;5054217;28;20025;-86
2023/01/29 09:43:25;;;;;;;40.45;26.92;;;77.30;2227.20;;;;;;5053882;28;20032;-89
2023/01/29 09:46:00;;;;;;;53.45;30.55;;;77.30;2227.20;;;;;;5054304;28;20090;-87
2023/01/29 09:48:30;;;;;;;55.22;38.70;;;77.30;2227.20;;;;;;5054007;28;20029;-86
2023/01/29 09:50:59;;;;;;;48.92;27.77;;;77.30;2227.20;;;;;;5055039;28;20021;-86
2023/01/29 09:53:48;;;;;;;60.25;41.78;;;77.30;2227.20;;;;;;5054396;28;20021;-87
2023/01/29 09:56:27;;;;;;;61.83;41.08;;;77.30;2227.20;;;;;;5053816;28;20505;-87
2023/01/29 09:58:57;;;;;;;48.63;29.15;;;77.40;2227.20;;;;;;5054943;28;20025;-86
2023/01/29 10:01:29;;;;;;;70.70;44.15;;;77.30;2227.20;;;;;;5063180;28;20013;-85
2023/01/29 10:04:19;;;;;;;66.22;41.60;;;77.40;2227.20;;;;;;5060165;28;20067;-87
2023/01/29 10:07:27;;;;;;;84.72;51.35;;;77.40;2227.20;;;;;;5063117;28;20028;-87
2023/01/29 10:10:14;;;;;;;57.03;34.53;;;77.40;2227.20;;;;;;5076690;28;20041;-85
2023/01/29 10:12:52;;;;;;;49.72;30.58;;;77.40;2227.20;;;;;;5072029;28;20100;-84
2023/01/29 10:15:50;;;;;;;51.28;30.92;;;77.40;2227.20;;;;;;5076231;28;20011;-82
2023/01/29 10:18:24;;;;;;;40.75;26.45;;;77.40;2227.20;;;;;;5059261;28;20390;-85
2023/01/29 10:21:32;;;;;;;51.47;30.15;;;77.40;2227.20;;;;;;5055372;28;20451;-85
2023/01/29 10:24:25;;;;;;;48.58;28.70;;;77.40;2227.20;;;;;;5023597;28;20033;-84
2023/01/29 10:26:51;;;;;;;88.30;47.05;;;77.40;2227.20;;;;;;5055037;28;20025;-85
2023/01/29 10:29:20;;;;;;;100.10;52.55;;;77.50;2227.20;;;;;;5054169;28;20039;-84
2023/01/29 10:31:55;;;;;;;135.50;72.03;;;77.50;2227.20;;;;;;5055077;28;20383;-84
2023/01/29 10:34:47;;;;;;;86.07;50.08;;;77.50;2227.20;;;;;;5055016;28;20029;-84
2023/01/29 10:37:23;;;;;;;107.93;57.17;;;77.50;2227.20;;;;;;5055687;28;20024;-86
2023/01/29 10:39:49;;;;;;;74.07;42.13;;;77.60;2227.20;;;;;;5054284;28;20075;-83
2023/01/29 10:42:23;;;;;;;85.45;45.45;;;77.50;2227.20;;;;;;5055412;28;20067;-84
2023/01/29 10:45:13;;;;;;;82.18;42.88;;;77.60;2227.20;;;;;;5057768;28;20029;-86
2023/01/29 10:47:54;;;;;;;66.18;34.95;;;77.60;2227.20;;;;;;5054814;28;20068;-79
2023/01/29 10:50:19;;;;;;;65.72;35.83;;;77.60;2227.20;;;;;;5054123;28;20076;-82
2023/01/29 10:53:14;;;;;;;53.63;33.70;;;77.60;2227.20;;;;;;5052900;28;20053;-82
2023/01/29 10:56:05;;;;;;;64.38;35.03;;;77.60;2227.20;;;;;;5023756;28;20037;-83
2023/01/29 10:58:44;;;;;;;54.53;30.35;;;77.60;2227.20;;;;;;5052773;28;20035;-83
2023/01/29 11:01:11;;;;;;;75.57;41.63;;;77.60;2227.20;;;;;;5052599;28;20025;-85
2023/01/29 11:03:37;;;;;;;83.75;47.15;;;77.60;2227.20;;;;;;5052311;28;20025;-83
2023/01/29 11:06:30;;;;;;;78.28;44.95;;;77.60;2227.20;;;;;;5052398;28;20112;-82
2023/01/29 11:09:16;;;;;;;96.40;56.73;;;77.70;2227.20;;;;;;5052546;28;20385;-87
2023/01/29 11:11:56;;;;;;;72.15;42.40;;;77.60;2227.20;;;;;;5052619;28;20132;-85
2023/01/29 11:14:28;;;;;;;76.20;47.75;;;77.60;2227.20;;;;;;5054276;28;20108;-86
2023/01/29 11:16:54;;;;;;;79.13;45.78;;;77.60;2227.20;;;;;;5053783;28;20029;-85
2023/01/29 11:19:41;;;;;;;75.80;43.53;;;77.70;2227.20;;;;;;5052806;28;20032;-84
2023/01/29 11:22:19;;;;;;;91.22;54.08;;;77.70;2227.20;;;;;;5052618;28;20033;-86
2023/01/29 11:24:46;;;;;;;66.53;39.63;;;102.40;2227.20;;;;;;5052252;28;20025;-84
2023/01/29 11:27:24;;;;;;;69.13;41.58;;;77.70;2227.20;;;;;;5052339;28;20028;-84
2023/01/29 11:29:52;;;;;;;79.38;49.22;;;102.40;2227.20;;;;;;5052482;28;20467;-86
2023/01/29 11:32:20;;;;;;;76.95;49.80;;;102.40;2227.20;;;;;;5052205;28;20033;-85
2023/01/29 11:35:03;;;;;;;56.75;35.17;;;102.40;2227.20;;;;;;5052424;28;20047;-85
2023/01/29 11:37:34;;;;;;;;;;;102.40;2227.20;;;;;;5061518;28;20033;-83
2023/01/29 11:39:59;;;;;;;71.50;46.58;;;77.70;2227.20;;;;;;5064568;28;19940;-85
2023/01/29 11:42:30;;;;;;;79.50;53.90;;;77.70;2227.20;;;;;;5066528;28;20025;-82
2023/01/29 11:44:56;;;;;;;63.88;36.92;;;77.70;2227.20;;;;;;5079745;28;20005;-83
2023/01/29 11:47:28;;;;;;;59.67;35.65;;;77.60;2227.20;;;;;;5078978;28;20036;-84
2023/01/29 11:49:56;;;;;;;59.35;40.03;;;77.70;2227.20;;;;;;5058991;28;20382;-83
2023/01/29 11:52:35;;;;;;;56.45;39.10;;;77.60;2227.20;;;;;;5060091;28;20091;-84
2023/01/29 11:55:26;;;;;;;54.78;35.85;;;77.60;2227.20;;;;;;5055745;28;20035;-85
2023/01/29 11:57:57;;;;;;;68.20;44.97;;;77.60;2227.20;;;;;;5055662;28;20467;-84
2023/01/29 12:00:27;;;;;;;66.07;40.95;;;77.50;2227.20;;;;;;5055443;28;20119;-83
2023/01/29 12:03:03;;;;;;;58.22;38.67;;;77.60;2227.20;;;;;;5056343;28;20033;-85
2023/01/29 12:05:29;;;;;;;85.85;48.70;;;77.60;2227.20;;;;;;5056478;28;20033;-85
2023/01/29 12:08:00;;;;;;;91.40;55.20;;;77.60;2227.20;;;;;;5055328;28;20390;-84
2023/01/29 12:10:38;;;;;;;86.15;49.72;;;77.60;2227.20;;;;;;5055198;28;20048;-82
2023/01/29 12:13:11;;;;;;;76.30;47.78;;;77.60;2227.20;;;;;;5056377;28;20109;-83
2023/01/29 12:15:38;;;;;;;95.05;56.38;;;77.70;2227.20;;;;;;5055060;28;20116;-83
2023/01/29 12:18:12;;;;;;;91.00;58.25;;;77.70;2227.20;;;;;;5055656;28;20459;-82
2023/01/29 12:20:47;;;;;;;68.25;42.63;;;77.70;2227.20;;;;;;5055468;28;20036;-86
2023/01/29 12:23:40;;;;;;;49.40;32.30;;;77.70;2227.20;;;;;;5056585;28;20033;-80
2023/01/29 12:26:16;;;;;;;;;;;77.60;2227.20;;;;;;5055740;28;20036;-81
2023/01/29 12:28:45;;;;;;;56.40;35.85;;;77.60;2227.20;;;;;;5056155;28;20054;-82
2023/01/29 12:31:32;;;;;;;50.40;33.28;;;77.60;2227.20;;;;;;5055394;28;20025;-84
2023/01/29 12:34:23;;;;;;;55.70;36.30;;;77.50;2227.20;;;;;;5055709;28;20025;-83
2023/01/29 12:37:12;;;;;;;60.28;36.38;;;77.60;2227.20;;;;;;5054766;28;20057;-81
2023/01/29 12:39:38;;;;;;;45.15;27.40;;;77.60;2227.20;;;;;;5054318;28;20040;-80
2023/01/29 12:42:24;;;;;;;67.00;37.47;;;77.60;2227.20;;;;;;5054545;28;20029;-84
2023/01/29 12:45:03;;;;;;;64.03;35.67;;;77.60;2227.20;;;;;;5054014;28;20036;-78
2023/01/29 12:47:46;;;;;;;54.35;32.50;;;77.60;2227.20;;;;;;5053838;28;20032;-81
2023/01/29 12:50:19;;;;;;;55.53;33.33;;;77.50;2227.20;;;;;;5054627;28;20028;-83
2023/01/29 12:52:45;;;;;;;;;;;77.40;2227.20;;;;;;5061907;28;20166;-84
2023/01/29 12:55:20;;;;;;;69.93;40.65;;;77.50;2227.20;;;;;;5073628;28;19973;-81
2023/01/29 12:58:04;;;;;;;53.13;31.63;;;77.50;2227.20;;;;;;5072896;28;20047;-82